Time;durP1;ratioP1;P1;durP2;ratioP2;P2;SDS_P1;SDS_P2;PMS_P1;PMS_P2;Temp;Humidity;BMP_temperature;BMP_pressure;BME280_temperature;BME280_humidity;BME280_pressure;Samples;Min_cycle;Max_cycle;Signal;HPM_P1;HPM_P2
2023/10/14 00:02:21;;;;;;;2.70;1.43;;;18.00;94.10;;;19.08;68.37;99656.84;3082238;46;20458;-70
2023/10/14 00:04:55;;;;;;;3.83;1.57;;;17.80;93.90;;;18.99;68.26;99659.19;3080348;44;20468;-69
2023/10/14 00:07:25;;;;;;;3.43;1.53;;;17.70;93.90;;;18.90;67.46;99661.50;3081992;46;20461;-69
2023/10/14 00:09:57;;;;;;;3.23;1.30;;;17.60;93.40;;;18.81;67.84;99670.22;3081547;46;20584;-70
2023/10/14 00:12:28;;;;;;;2.73;1.37;;;17.60;93.60;;;18.76;67.88;99671.00;3081439;46;20507;-68
2023/10/14 00:15:03;;;;;;;1.70;1.40;;;17.50;93.90;;;18.71;67.99;99660.28;3082071;46;20468;-68
2023/10/14 00:17:37;;;;;;;4.37;1.77;;;17.40;93.90;;;18.66;68.11;99668.25;3081366;46;20455;-67
2023/10/14 00:20:09;;;;;;;2.33;1.40;;;17.30;93.90;;;18.63;68.11;99682.09;3081699;46;20492;-69
2023/10/14 00:22:57;;;;;;;5.80;1.97;;;17.30;94.10;;;18.58;68.59;99705.22;3081375;46;20452;-69
2023/10/14 00:25:33;;;;;;;3.13;1.53;;;17.20;94.10;;;18.55;68.14;99706.53;3082609;46;20431;-69
2023/10/14 00:28:11;;;;;;;3.93;1.67;;;17.20;94.10;;;18.51;68.68;99708.09;3081111;46;20488;-70
2023/10/14 00:30:41;;;;;;;4.73;2.33;;;17.10;94.10;;;18.49;68.11;99704.06;3079730;46;20459;-69
2023/10/14 00:33:12;;;;;;;2.97;1.70;;;17.10;94.00;;;18.47;68.43;99704.31;3080247;46;21105;-68
2023/10/14 00:35:41;;;;;;;5.27;2.23;;;17.10;94.40;;;18.49;68.28;99704.06;3082148;46;20452;-68
2023/10/14 00:38:13;;;;;;;4.97;2.33;;;17.00;94.40;;;18.49;67.95;99707.56;3081842;46;20515;-68
2023/10/14 00:40:45;;;;;;;4.27;1.73;;;17.00;94.20;;;18.51;68.81;99713.44;3081491;46;20465;-68
2023/10/14 00:43:14;;;;;;;3.03;1.77;;;17.00;94.60;;;18.54;69.00;99722.78;3081694;46;20489;-68
2023/10/14 00:45:45;;;;;;;2.83;1.60;;;17.00;94.50;;;18.52;68.80;99696.38;3081988;46;20431;-68
2023/10/14 00:48:19;;;;;;;3.43;1.50;;;17.00;94.50;;;18.53;68.76;99702.50;3082081;46;21004;-68
2023/10/14 00:50:50;;;;;;;1.87;1.17;;;17.00;94.10;;;18.49;67.39;99694.22;3080568;46;20472;-68
2023/10/14 00:53:18;;;;;;;2.57;1.40;;;17.00;93.40;;;18.45;68.34;99698.41;3081470;46;20439;-70
2023/10/14 00:58:24;;;;;;;2.27;1.50;;;16.90;94.10;;;18.42;68.43;99698.91;3080458;46;21005;-70
2023/10/14 01:00:58;;;;;;;4.60;1.50;;;16.90;94.10;;;18.40;68.76;99709.00;3081405;46;20526;-68
2023/10/14 01:03:32;;;;;;;4.20;1.10;;;16.90;94.10;;;18.38;68.47;99704.97;3081205;46;21111;-68
2023/10/14 01:08:53;;;;;;;3.37;1.50;;;16.80;94.60;;;18.37;69.04;99725.50;3081229;46;21033;-69
2023/10/14 01:11:24;;;;;;;2.30;0.93;;;16.80;94.50;;;18.37;68.38;99717.50;3081375;46;20624;-66
2023/10/14 01:14:04;;;;;;;3.27;1.23;;;16.80;94.30;;;18.32;68.93;99721.97;3081170;46;20540;-69
2023/10/14 01:16:34;;;;;;;3.70;1.33;;;16.80;94.30;;;18.27;69.41;99722.72;3081614;46;20510;-67
2023/10/14 01:19:04;;;;;;;2.00;1.10;;;16.70;94.50;;;18.23;69.40;99729.63;3081169;46;21043;-69
2023/10/14 01:21:38;;;;;;;1.07;0.90;;;16.70;94.60;;;18.19;69.54;99745.28;3081377;46;20514;-68
2023/10/14 01:24:15;;;;;;;1.27;0.90;;;16.70;94.90;;;18.16;69.43;99750.31;3081375;46;20431;-68
2023/10/14 01:26:52;;;;;;;2.87;1.37;;;16.60;95.00;;;18.15;69.72;99765.47;3081590;46;20497;-68
2023/10/14 01:29:24;;;;;;;2.50;1.37;;;16.60;95.20;;;18.15;69.94;99764.66;3081241;46;20468;-69
2023/10/14 01:32:48;;;;;;;2.90;1.53;;;16.50;95.30;;;18.09;70.09;99774.44;3080960;46;21096;-68
2023/10/14 01:38:00;;;;;;;2.53;1.37;;;16.50;95.60;;;18.06;70.80;99788.28;3081212;46;20551;-68
2023/10/14 01:40:36;;;;;;;5.17;1.50;;;16.50;95.50;;;18.02;70.81;99796.97;3079934;46;20438;-68
2023/10/14 01:43:08;;;;;;;3.43;1.33;;;16.50;95.30;;;17.96;70.59;99795.31;3081073;46;20465;-68
2023/10/14 01:45:40;;;;;;;1.47;0.83;;;16.40;95.20;;;17.91;70.63;99796.06;3081285;46;20475;-68
2023/10/14 01:50:54;;;;;;;2.13;1.10;;;16.30;95.20;;;17.81;70.48;99795.91;3080608;46;20439;-68
2023/10/14 01:53:27;;;;;;;1.30;1.00;;;16.30;95.50;;;17.80;71.14;99804.13;3080398;46;20435;-68
2023/10/14 01:55:59;;;;;;;3.33;1.03;;;16.20;95.50;;;17.76;70.95;99808.34;3081251;46;20500;-66
2023/10/14 01:58:32;;;;;;;1.83;1.40;;;16.20;95.60;;;17.72;71.35;99809.88;3080410;46;20434;-68
2023/10/14 02:03:45;;;;;;;3.30;1.50;;;16.10;95.90;;;17.64;71.69;99802.31;3080876;46;20456;-68
2023/10/14 02:06:20;;;;;;;3.83;1.07;;;16.10;96.20;;;17.63;71.65;99819.31;3081356;46;20987;-70
2023/10/14 02:08:58;;;;;;;3.83;1.30;;;16.00;96.00;;;17.55;71.18;99805.38;3080482;46;20503;-69
2023/10/14 02:11:35;;;;;;;2.77;1.27;;;16.00;95.90;;;17.48;71.72;99794.06;3079942;46;21032;-70
2023/10/14 02:14:08;;;;;;;3.50;1.40;;;15.90;95.80;;;17.43;71.53;99791.31;3080266;46;20557;-69
2023/10/14 02:16:44;;;;;;;3.23;1.33;;;15.90;95.90;;;17.39;71.89;99808.81;3080209;46;20439;-69
2023/10/14 02:19:18;;;;;;;3.90;1.30;;;15.80;95.80;;;17.37;71.86;99802.94;3080474;46;21151;-69
2023/10/14 02:21:48;;;;;;;3.00;1.17;;;15.80;96.00;;;17.36;71.87;99806.63;3080798;46;20451;-70
2023/10/14 02:24:18;;;;;;;4.20;1.70;;;15.70;96.10;;;17.35;72.14;99809.53;3081200;46;20501;-70
2023/10/14 02:26:48;;;;;;;4.77;1.30;;;15.70;96.20;;;17.34;72.06;99822.03;3080939;46;20430;-68
2023/10/14 02:29:23;;;;;;;2.03;1.20;;;15.70;96.10;;;17.32;72.30;99829.44;3080176;46;20466;-70
2023/10/14 02:31:55;;;;;;;2.47;1.10;;;15.70;96.40;;;17.31;72.21;99846.44;3079882;43;20455;-70
2023/10/14 02:34:23;;;;;;;2.13;1.07;;;15.60;96.50;;;17.31;72.00;99859.75;3080427;46;20510;-67
2023/10/14 02:36:52;;;;;;;3.80;1.23;;;15.60;96.40;;;17.31;72.03;99869.56;3080734;46;21122;-68
2023/10/14 02:39:27;;;;;;;2.23;1.40;;;15.60;96.60;;;17.31;72.53;99881.03;3080451;46;20466;-69
2023/10/14 02:41:59;;;;;;;3.47;1.07;;;15.60;97.20;;;17.31;72.33;99875.72;3080465;46;20447;-69
2023/10/14 02:44:32;;;;;;;2.00;1.10;;;15.60;96.50;;;17.31;72.50;99886.34;3080432;46;20427;-68
2023/10/14 02:47:05;;;;;;;4.83;1.67;;;15.60;96.50;;;17.29;72.44;99885.78;3081127;46;20431;-68
2023/10/14 02:49:37;;;;;;;1.40;1.30;;;15.60;96.50;;;17.29;72.66;99907.06;3082916;46;20521;-68
2023/10/14 02:52:10;;;;;;;4.63;1.50;;;15.60;96.80;;;17.29;72.88;99915.03;3082854;46;21051;-67
2023/10/14 02:54:54;;;;;;;2.87;1.30;;;15.60;96.70;;;17.29;72.87;99914.22;3083372;46;20451;-68
2023/10/14 02:59:57;;;;;;;2.87;1.30;;;15.60;97.10;;;17.34;72.87;99920.47;3082669;46;21065;-70
2023/10/14 03:02:27;;;;;;;3.43;1.20;;;15.60;97.30;;;17.39;73.37;99919.75;3082076;46;20537;-68
2023/10/14 03:07:33;;;;;;;4.77;1.47;;;15.60;96.70;;;17.39;72.79;99931.19;3082838;46;21114;-69
2023/10/14 03:12:59;;;;;;;4.47;1.70;;;15.70;96.40;;;17.30;72.20;99937.94;3082649;46;20427;-70
2023/10/14 03:15:43;;;;;;;4.93;1.57;;;15.60;96.20;;;17.24;72.44;99954.03;3080679;44;20563;-69
2023/10/14 03:18:16;;;;;;;5.40;1.60;;;15.60;96.50;;;17.20;72.83;99966.19;3081472;46;20431;-68
2023/10/14 03:21:08;;;;;;;6.07;1.90;;;15.60;96.40;;;17.18;73.06;99969.09;3082371;46;20450;-69
2023/10/14 03:23:38;;;;;;;5.40;1.80;;;15.60;96.20;;;17.14;72.72;99975.91;3082585;46;21064;-70
2023/10/14 03:26:13;;;;;;;6.73;1.50;;;15.50;96.00;;;17.08;71.98;99981.38;3082232;46;20523;-70
2023/10/14 03:28:50;;;;;;;4.40;1.70;;;15.50;95.50;;;17.06;72.17;99992.25;3082418;46;20432;-69
2023/10/14 03:31:35;;;;;;;6.13;1.97;;;15.40;95.60;;;17.00;72.28;100000.38;3082057;46;20435;-70
2023/10/14 03:34:30;;;;;;;11.10;2.57;;;15.40;95.80;;;16.96;71.96;100004.53;3081711;46;20437;-69
2023/10/14 03:37:16;;;;;;;9.83;1.97;;;15.40;95.40;;;16.93;71.96;100011.13;3082701;46;20476;-68
2023/10/14 03:40:24;;;;;;;7.03;2.50;;;15.40;95.60;;;16.88;72.16;100018.97;3082239;46;20523;-68
2023/10/14 03:42:42;;;;;;;7.47;2.10;;;15.30;95.50;;;16.84;72.18;100026.63;3081515;46;20439;-68
2023/10/14 03:45:20;;;;;;;8.43;2.43;;;15.30;95.40;;;16.81;71.85;100028.91;3082308;46;20500;-69
2023/10/14 03:47:52;;;;;;;7.20;2.20;;;15.20;95.20;;;16.76;71.90;100032.28;3082432;46;20428;-68
2023/10/14 03:50:24;;;;;;;9.47;2.33;;;15.20;95.30;;;16.72;71.55;100054.25;3082028;46;20450;-68
2023/10/14 03:52:55;;;;;;;6.77;2.20;;;15.10;95.10;;;16.68;71.51;100055.75;3082361;46;20442;-67
2023/10/14 03:55:26;;;;;;;8.47;2.00;;;15.10;95.00;;;16.65;71.17;100061.50;3082124;46;21061;-68
2023/10/14 03:58:03;;;;;;;7.77;1.87;;;15.00;95.00;;;16.61;71.45;100060.38;3082062;46;20543;-68
2023/10/14 04:00:40;;;;;;;9.90;2.20;;;15.00;94.90;;;16.55;71.38;100077.22;3080635;43;20462;-68
2023/10/14 04:03:13;;;;;;;7.23;2.23;;;15.00;95.20;;;16.51;71.07;100078.69;3082010;46;20438;-70
2023/10/14 04:05:52;;;;;;;8.50;2.17;;;14.90;94.80;;;16.48;70.86;100081.78;3082387;46;20511;-68
2023/10/14 04:08:30;;;;;;;6.07;2.10;;;14.90;94.70;;;16.44;70.78;100096.59;3082233;46;20995;-68
2023/10/14 04:11:13;;;;;;;7.03;2.03;;;14.80;94.70;;;16.40;71.15;100100.75;3081911;46;20528;-69
2023/10/14 04:13:51;;;;;;;8.77;2.60;;;14.80;94.90;;;16.38;70.39;100102.81;3082345;46;20453;-67
2023/10/14 04:16:27;;;;;;;5.60;1.87;;;14.80;94.50;;;16.36;70.39;100118.97;3081945;46;20457;-68
2023/10/14 04:19:04;;;;;;;8.23;2.10;;;14.80;94.90;;;16.35;70.49;100116.53;3082210;46;20545;-69
2023/10/14 04:21:36;;;;;;;9.10;2.00;;;14.80;94.50;;;16.32;69.85;100120.47;3082176;46;20573;-68
2023/10/14 04:26:49;;;;;;;3.43;1.90;;;14.70;93.70;;;16.26;69.21;100135.44;3082061;46;20428;-68
2023/10/14 04:29:39;;;;;;;8.73;2.40;;;14.70;93.80;;;16.25;69.12;100141.00;3081840;46;20438;-69
2023/10/14 04:32:18;;;;;;;6.53;2.20;;;14.60;93.80;;;16.22;69.11;100147.56;3081892;46;20468;-68
2023/10/14 04:34:54;;;;;;;10.67;2.27;;;14.60;93.80;;;16.20;68.82;100154.97;3082153;46;20427;-67
2023/10/14 04:37:26;;;;;;;10.27;3.23;;;14.60;93.60;;;16.17;68.72;100154.59;3081967;46;20431;-68
2023/10/14 04:39:58;;;;;;;8.03;2.33;;;14.60;93.60;;;16.14;68.69;100161.16;3081541;46;20465;-67
2023/10/14 04:42:36;;;;;;;8.63;2.40;;;14.50;93.40;;;16.11;68.49;100156.31;3082011;46;20514;-69
2023/10/14 04:45:07;;;;;;;8.00;2.07;;;14.50;93.30;;;16.08;68.35;100155.94;3082174;46;20549;-69
2023/10/14 04:47:38;;;;;;;5.70;2.07;;;14.50;93.30;;;16.05;67.81;100172.31;3081515;46;20472;-68
2023/10/14 04:50:14;;;;;;;10.40;2.50;;;14.50;93.30;;;16.01;67.79;100174.63;3080516;46;20525;-68
2023/10/14 04:52:48;;;;;;;11.63;2.30;;;14.50;92.90;;;15.98;67.53;100172.41;3081721;46;20448;-67
2023/10/14 05:00:42;;;;;;;11.43;2.50;;;14.40;93.00;;;15.88;67.63;100177.41;3080758;46;20443;-69
2023/10/14 05:03:13;;;;;;;7.53;2.10;;;14.40;93.00;;;15.88;67.60;100188.03;3081367;46;20431;-68
2023/10/14 05:05:48;;;;;;;9.90;2.53;;;14.30;92.90;;;15.88;67.51;100192.56;3081963;46;20617;-67
2023/10/14 05:08:21;;;;;;;8.43;2.33;;;14.30;92.90;;;15.87;66.80;100190.91;3081034;46;20456;-67
2023/10/14 05:11:19;;;;;;;13.00;2.27;;;14.30;92.90;;;15.81;67.31;100208.53;3080094;46;21097;-70
2023/10/14 05:17:43;;;;;;;5.77;2.10;;;14.30;92.70;;;15.80;66.70;100212.25;3080794;46;20927;-68
2023/10/14 05:19:42;;;;;;;5.23;2.20;;;14.20;92.40;;;15.79;66.26;100210.59;3080849;46;20606;-68
2023/10/14 05:22:37;;;;;;;8.57;2.10;;;14.20;92.20;;;15.73;66.41;100214.16;3080717;43;20439;-70
2023/10/14 05:25:15;;;;;;;6.67;2.63;;;14.20;92.00;;;15.72;66.35;100215.16;3080021;46;21131;-69
2023/10/14 05:27:58;;;;;;;7.00;2.30;;;14.20;92.10;;;15.70;66.35;100221.72;3080694;46;20433;-68
2023/10/14 05:30:33;;;;;;;7.33;1.80;;;14.10;92.10;;;15.67;66.04;100222.16;3080775;46;21019;-68
2023/10/14 05:33:06;;;;;;;11.27;2.63;;;14.10;91.90;;;15.67;65.84;100225.63;3081459;46;20432;-69
2023/10/14 05:35:42;;;;;;;8.97;2.20;;;14.10;92.00;;;15.64;65.37;100234.06;3081458;46;20431;-68
2023/10/14 05:38:10;;;;;;;9.90;2.23;;;14.10;91.60;;;15.65;65.51;100240.16;3081264;46;20547;-67
2023/10/14 05:40:41;;;;;;;12.73;2.63;;;14.10;91.70;;;15.64;65.16;100255.28;3080804;46;20441;-68
2023/10/14 05:43:09;;;;;;;8.67;2.73;;;14.10;92.30;;;15.62;65.37;100257.31;3081573;46;20544;-68
2023/10/14 05:45:38;;;;;;;10.87;2.10;;;14.10;91.50;;;15.61;65.42;100266.31;3081549;46;20536;-69
2023/10/14 05:48:08;;;;;;;9.23;2.47;;;14.00;91.50;;;15.60;64.81;100275.28;3081174;46;20448;-68
2023/10/14 05:50:36;;;;;;;8.77;2.43;;;14.00;91.50;;;15.59;65.15;100285.09;3080985;46;20489;-68
2023/10/14 05:53:07;;;;;;;10.00;2.73;;;14.00;91.40;;;15.57;64.39;100296.94;3081757;46;21135;-67
2023/10/14 05:55:38;;;;;;;9.60;2.47;;;14.00;91.20;;;15.55;64.14;100301.66;3081102;46;20452;-68
2023/10/14 05:58:08;;;;;;;11.40;2.20;;;14.00;91.10;;;15.53;63.74;100306.38;3081370;46;20427;-69
2023/10/14 06:00:40;;;;;;;8.67;2.27;;;14.00;91.00;;;15.51;63.69;100319.88;3080256;43;20435;-68
2023/10/14 06:03:12;;;;;;;8.73;2.90;;;13.90;90.90;;;15.49;63.98;100321.13;3080944;46;20431;-67
2023/10/14 06:05:41;;;;;;;8.60;2.60;;;13.90;90.80;;;15.49;63.70;100321.94;3081037;46;20454;-68
2023/10/14 06:08:16;;;;;;;8.23;2.60;;;13.90;90.80;;;15.49;63.99;100329.88;3081292;46;20431;-68
2023/10/14 06:10:46;;;;;;;6.63;2.00;;;13.90;91.20;;;15.48;63.68;100330.09;3080583;46;20439;-67
2023/10/14 06:13:14;;;;;;;9.27;2.43;;;13.90;90.60;;;15.48;63.76;100351.31;3080667;46;20945;-71
2023/10/14 06:15:44;;;;;;;10.80;2.53;;;13.80;90.80;;;15.47;63.48;100355.00;3081034;46;20431;-67
2023/10/14 06:18:14;;;;;;;5.73;1.83;;;13.90;91.20;;;15.47;63.27;100366.44;3080732;46;21072;-68
2023/10/14 06:20:45;;;;;;;5.27;2.13;;;13.80;90.70;;;15.46;63.54;100375.41;3080691;46;20506;-68
2023/10/14 06:23:14;;;;;;;7.53;1.93;;;13.80;90.60;;;15.46;63.03;100375.41;3083099;46;21009;-68
2023/10/14 06:25:43;;;;;;;11.27;2.77;;;13.80;90.50;;;15.47;62.92;100377.03;3083432;46;20430;-68
2023/10/14 06:28:11;;;;;;;9.80;2.30;;;13.80;90.50;;;15.49;63.02;100384.78;3083391;46;20504;-68
2023/10/14 06:30:42;;;;;;;9.63;2.50;;;13.80;90.50;;;15.50;62.71;100389.03;3082510;46;20546;-68
2023/10/14 06:33:11;;;;;;;10.27;2.77;;;13.80;90.20;;;15.52;62.68;100392.31;3083250;46;20455;-68
2023/10/14 06:35:43;;;;;;;11.23;2.60;;;13.80;90.50;;;15.57;62.33;100392.44;3083447;46;20435;-68
2023/10/14 06:38:20;;;;;;;8.77;2.30;;;13.80;90.20;;;15.62;62.00;100410.41;3083377;46;20564;-68
2023/10/14 06:40:54;;;;;;;9.90;2.47;;;13.90;90.30;;;15.64;62.54;100408.34;3083276;46;21078;-68
2023/10/14 06:43:25;;;;;;;8.70;2.17;;;13.90;90.40;;;15.66;62.21;100415.06;3082517;46;21121;-66
2023/10/14 06:45:56;;;;;;;7.33;2.23;;;14.00;90.20;;;15.68;61.89;100407.69;3083584;46;20622;-67
2023/10/14 06:48:26;;;;;;;9.83;2.27;;;14.00;90.10;;;15.72;62.24;100416.03;3082623;46;20431;-68
2023/10/14 06:50:54;;;;;;;7.10;2.33;;;14.00;90.20;;;15.73;61.55;100429.09;3082882;46;20575;-67
2023/10/14 06:53:27;;;;;;;5.10;2.07;;;14.00;89.70;;;15.73;61.66;100429.09;3083122;46;20492;-68
2023/10/14 06:55:58;;;;;;;11.47;2.80;;;14.00;90.00;;;15.73;61.60;100442.34;3082726;46;20472;-68
2023/10/14 06:58:28;;;;;;;9.87;2.57;;;14.10;90.00;;;15.74;60.98;100441.31;3082389;46;20468;-68
2023/10/14 07:01:00;;;;;;;6.33;2.37;;;14.10;89.50;;;15.72;61.47;100448.69;3081860;46;20465;-67
2023/10/14 07:03:28;;;;;;;6.13;1.93;;;14.10;89.40;;;15.74;61.20;100451.13;3082774;46;20518;-66
2023/10/14 07:05:57;;;;;;;9.17;2.50;;;14.10;89.60;;;15.76;61.18;100449.88;3082878;46;20550;-67
2023/10/14 07:08:29;;;;;;;6.03;2.27;;;14.10;88.70;;;15.76;60.67;100451.75;3082381;46;20498;-70
2023/10/14 07:11:00;;;;;;;6.57;2.03;;;14.10;89.00;;;15.79;60.65;100459.25;3081961;46;20435;-68
2023/10/14 07:13:32;;;;;;;10.73;2.30;;;14.10;89.00;;;15.80;60.87;100467.00;3082999;46;20428;-68
2023/10/14 07:16:06;;;;;;;11.73;2.53;;;14.10;88.90;;;15.80;60.28;100467.00;3082673;46;20527;-68
2023/10/14 07:18:36;;;;;;;13.13;2.60;;;14.10;88.50;;;15.85;60.47;100464.53;3082235;46;20439;-67
2023/10/14 07:21:08;;;;;;;9.87;2.30;;;14.20;88.60;;;15.90;60.71;100472.63;3082393;46;20529;-67
2023/10/14 07:23:36;;;;;;;5.63;2.60;;;14.20;88.80;;;15.97;60.56;100472.59;3082441;46;20552;-67
2023/10/14 07:26:13;;;;;;;9.57;2.53;;;14.20;88.90;;;16.03;60.17;100485.00;3082597;46;21563;-69
2023/10/14 07:28:43;;;;;;;8.83;2.57;;;14.30;88.50;;;16.09;59.92;100492.91;3080459;46;20446;-60
2023/10/14 07:31:13;;;;;;;16.47;3.07;;;14.30;87.40;;;16.12;58.60;100487.16;3081327;46;20435;-61
2023/10/14 07:33:41;;;;;;;9.63;2.90;;;14.30;86.00;;;16.14;58.58;100501.03;3081408;43;21087;-60
2023/10/14 07:36:11;;;;;;;13.60;3.00;;;14.40;85.50;;;16.16;58.12;100504.28;3081962;46;20519;-60
2023/10/14 07:38:42;;;;;;;12.63;2.87;;;14.40;85.20;;;16.17;58.16;100505.94;3080504;46;20430;-61
2023/10/14 07:41:14;;;;;;;8.30;2.23;;;14.40;85.50;;;16.20;57.81;100510.00;3082659;46;20546;-62
2023/10/14 07:43:42;;;;;;;10.37;2.90;;;14.40;84.80;;;16.21;57.45;100515.09;3081953;46;20549;-62
2023/10/14 07:46:11;;;;;;;8.80;2.40;;;14.50;85.00;;;16.26;57.50;100517.91;3082055;46;20487;-62
2023/10/14 07:48:39;;;;;;;8.03;2.93;;;14.50;84.80;;;16.30;57.19;100536.06;3081424;46;21146;-60
2023/10/14 07:51:09;;;;;;;9.47;2.50;;;14.60;84.70;;;16.33;56.75;100531.13;3081995;46;20487;-60
2023/10/14 07:53:56;;;;;;;7.63;2.23;;;14.60;83.60;;;16.36;57.02;100537.84;3080971;46;20476;-62
2023/10/14 07:56:25;;;;;;;8.03;3.07;;;14.60;84.00;;;16.40;56.73;100552.34;3081069;46;20431;-62
2023/10/14 07:58:56;;;;;;;9.43;3.00;;;14.70;83.90;;;16.42;56.28;100539.66;3080148;46;20486;-59
2023/10/14 08:01:25;;;;;;;11.70;2.53;;;14.70;82.80;;;16.43;56.22;100546.56;3081821;46;20546;-61
2023/10/14 08:03:56;;;;;;;10.47;2.47;;;14.70;83.30;;;16.46;56.64;100546.97;3080363;46;20514;-59
2023/10/14 08:06:26;;;;;;;7.27;2.27;;;14.80;83.90;;;16.51;56.48;100565.75;3081732;46;20427;-62
2023/10/14 08:08:54;;;;;;;9.43;2.67;;;14.80;83.30;;;16.56;56.42;100567.75;3081509;46;20477;-60
2023/10/14 08:11:23;;;;;;;10.97;2.70;;;14.80;83.10;;;16.61;55.73;100559.97;3082180;46;20435;-60
2023/10/14 08:13:51;;;;;;;11.67;2.23;;;14.90;82.40;;;16.64;55.70;100576.25;3082251;46;20506;-62
2023/10/14 08:16:21;;;;;;;10.67;2.60;;;14.90;82.60;;;16.69;55.60;100572.94;3082122;46;21158;-60
2023/10/14 08:18:53;;;;;;;10.87;2.53;;;15.00;82.20;;;16.70;55.22;100580.72;3081314;46;20988;-62
2023/10/14 08:21:23;;;;;;;8.00;2.47;;;15.00;82.00;;;16.74;55.00;100581.09;3082243;46;20571;-62
2023/10/14 08:23:51;;;;;;;10.27;2.83;;;15.00;81.40;;;16.76;55.09;100581.69;3080908;46;20448;-60
2023/10/14 08:26:20;;;;;;;19.27;9.77;;;15.00;81.50;;;16.79;54.86;100595.38;3081980;46;20449;-61
2023/10/14 08:28:50;;;;;;;10.43;2.47;;;15.10;81.80;;;16.85;54.64;100604.31;3081611;46;21000;-62
2023/10/14 08:31:18;;;;;;;11.67;2.57;;;15.10;80.90;;;16.88;54.39;100610.00;3081882;46;20464;-60
2023/10/14 08:33:47;;;;;;;13.53;2.97;;;15.10;81.00;;;16.92;54.56;100613.84;3082070;43;20431;-60
2023/10/14 08:36:16;;;;;;;11.03;2.57;;;15.10;81.10;;;16.97;54.69;100623.84;3082099;46;20523;-59
2023/10/14 08:38:44;;;;;;;13.03;3.47;;;15.20;81.40;;;17.03;54.16;100622.13;3081296;46;20505;-62
2023/10/14 08:41:16;;;;;;;9.60;2.57;;;15.20;80.20;;;17.07;54.05;100623.34;3082046;46;20564;-60
2023/10/14 08:43:49;;;;;;;11.40;2.47;;;15.30;80.60;;;17.12;54.36;100631.44;3082215;46;20427;-60
2023/10/14 08:46:23;;;;;;;7.87;3.00;;;15.30;81.20;;;17.19;54.26;100643.66;3082099;46;20473;-60
2023/10/14 08:48:53;;;;;;;9.27;2.90;;;15.40;80.80;;;17.29;54.04;100653.78;3080695;46;20430;-58
2023/10/14 08:51:25;;;;;;;17.27;3.00;;;15.40;81.10;;;17.39;53.93;100654.94;3081666;46;21378;-60
2023/10/14 08:54:15;;;;;;;8.87;2.57;;;15.50;80.60;;;17.49;53.71;100657.91;3081782;46;20981;-61
2023/10/14 08:56:45;;;;;;;10.70;3.03;;;15.60;80.70;;;17.58;53.71;100664.56;3081655;46;20497;-60
2023/10/14 08:59:13;;;;;;;9.57;2.73;;;15.60;80.30;;;17.67;53.54;100674.91;3080428;46;20467;-61
2023/10/14 09:01:43;;;;;;;11.60;2.60;;;15.70;80.00;;;17.78;52.98;100669.66;3081676;46;20492;-62
2023/10/14 09:04:15;;;;;;;12.43;2.67;;;15.80;79.70;;;17.91;52.86;100671.34;3080631;46;20533;-62
2023/10/14 09:06:43;;;;;;;10.93;2.03;;;15.90;79.80;;;17.99;52.19;100681.72;3081712;46;20455;-58
2023/10/14 09:09:18;;;;;;;12.80;3.07;;;16.00;77.90;;;18.05;51.14;100686.13;3081195;46;20435;-60
2023/10/14 09:11:46;;;;;;;9.60;2.43;;;16.10;76.60;;;18.12;50.87;100689.50;3081736;46;20549;-60
2023/10/14 09:14:17;;;;;;;10.63;2.50;;;16.10;76.60;;;18.18;50.80;100693.97;3081249;46;20451;-60
2023/10/14 09:16:49;;;;;;;10.13;2.83;;;16.20;76.00;;;18.22;50.03;100703.13;3081552;46;20478;-62
2023/10/14 09:19:17;;;;;;;13.50;3.07;;;16.30;74.90;;;18.28;49.57;100702.22;3080638;46;21076;-62
2023/10/14 09:21:57;;;;;;;7.47;2.57;;;16.40;74.90;;;18.42;49.90;100689.53;3080309;43;20455;-60
2023/10/14 09:24:59;;;;;;;5.90;2.47;;;16.40;74.80;;;18.56;49.30;100691.00;3080419;46;20947;-62
2023/10/14 09:27:30;;;;;;;8.87;3.00;;;16.60;74.50;;;18.73;49.00;100700.75;3081290;46;20549;-60
2023/10/14 09:29:59;;;;;;;9.70;2.50;;;16.60;73.80;;;18.89;47.63;100694.78;3080857;46;20578;-68
2023/10/14 09:32:28;;;;;;;7.17;2.80;;;16.70;72.60;;;19.14;47.35;100707.09;3081197;46;21057;-68
2023/10/14 09:34:58;;;;;;;7.50;2.87;;;16.90;72.60;;;19.25;46.55;100703.63;3081256;46;20996;-69
2023/10/14 09:37:26;;;;;;;10.87;3.10;;;16.90;71.80;;;19.27;46.84;100715.69;3080928;46;20432;-68
2023/10/14 09:40:06;;;;;;;8.70;3.00;;;17.00;71.70;;;19.31;46.86;100713.38;3080507;46;20435;-68
2023/10/14 09:42:37;;;;;;;10.00;2.27;;;17.10;71.60;;;19.37;46.29;100717.81;3081482;46;20427;-68
2023/10/14 09:45:12;;;;;;;7.80;2.20;;;17.20;71.10;;;19.35;46.47;100725.22;3080452;46;20452;-67
2023/10/14 09:47:45;;;;;;;10.33;2.67;;;17.20;70.90;;;19.32;46.81;100725.69;3081159;46;21021;-68
2023/10/14 09:50:16;;;;;;;9.33;3.23;;;17.30;70.40;;;19.34;46.86;100728.91;3079748;46;20443;-69
2023/10/14 09:52:47;;;;;;;9.13;2.60;;;17.30;70.80;;;19.37;46.50;100739.19;3080811;46;20508;-68
2023/10/14 09:55:25;;;;;;;7.40;2.77;;;17.40;69.80;;;19.33;46.73;100738.78;3081541;46;20559;-70
2023/10/14 09:58:00;;;;;;;8.57;2.80;;;17.40;69.60;;;19.28;46.53;100732.53;3077641;46;20518;-68
2023/10/14 10:00:33;;;;;;;12.57;3.43;;;17.50;70.30;;;19.25;46.66;100743.66;3079371;46;20447;-67
2023/10/14 10:03:06;;;;;;;14.57;3.23;;;17.40;69.70;;;19.21;46.74;100739.81;3081012;46;20459;-68
2023/10/14 10:05:44;;;;;;;9.80;2.43;;;17.40;70.00;;;19.13;45.96;100742.84;3081309;46;20431;-68
2023/10/14 10:08:44;;;;;;;11.00;3.50;;;17.40;68.50;;;18.98;46.38;100745.13;3079991;46;20423;-69
2023/10/14 10:11:14;;;;;;;9.57;2.90;;;17.30;68.60;;;18.92;46.74;100752.19;3080596;46;21075;-68
2023/10/14 10:13:45;;;;;;;11.30;3.40;;;17.20;68.20;;;18.83;46.58;100742.88;3080293;46;20649;-68
2023/10/14 10:16:13;;;;;;;6.93;2.73;;;17.20;68.20;;;18.76;46.33;100756.31;3081124;46;20481;-68
2023/10/14 10:18:56;;;;;;;11.37;3.60;;;17.10;68.90;;;18.67;46.95;100749.69;3079851;46;20513;-68
2023/10/14 10:21:30;;;;;;;13.03;3.10;;;17.00;69.40;;;18.66;47.05;100752.59;3079959;46;20494;-69
2023/10/14 10:24:34;;;;;;;7.43;2.40;;;17.00;70.20;;;18.65;46.92;100756.28;3080142;46;20490;-69
2023/10/14 10:27:06;;;;;;;10.40;3.10;;;17.00;70.20;;;18.72;47.63;100747.16;3080354;46;20452;-68
2023/10/14 10:29:50;;;;;;;14.63;3.17;;;16.90;70.90;;;18.81;47.83;100756.44;3080211;46;20463;-68
2023/10/14 10:32:30;;;;;;;10.43;2.90;;;16.90;71.70;;;18.86;47.86;100761.91;3080818;46;20432;-68
2023/10/14 10:35:12;;;;;;;7.50;2.43;;;17.00;71.50;;;18.89;47.48;100758.00;3080167;46;20443;-71
2023/10/14 10:37:55;;;;;;;9.73;2.80;;;17.00;70.40;;;18.91;46.63;100754.06;3080937;46;20431;-68
2023/10/14 10:40:28;;;;;;;8.20;2.47;;;17.00;69.30;;;19.02;46.63;100756.97;3079691;46;20496;-66
2023/10/14 10:43:06;;;;;;;8.23;3.23;;;17.10;69.90;;;19.16;46.73;100766.41;3080181;46;20434;-69
2023/10/14 10:45:37;;;;;;;7.90;2.17;;;17.20;70.00;;;19.31;45.52;100774.75;3081287;46;20452;-68
2023/10/14 10:48:10;;;;;;;6.53;2.40;;;17.20;67.60;;;19.38;44.99;100767.47;3080323;46;20479;-68
2023/10/14 10:50:41;;;;;;;9.90;2.80;;;17.30;66.20;;;19.36;43.86;100770.41;3080055;46;20438;-68
2023/10/14 10:53:10;;;;;;;4.63;2.23;;;17.40;64.40;;;19.42;43.92;100768.66;3080466;46;21111;-67
2023/10/14 10:55:42;;;;;;;12.97;3.13;;;17.40;64.40;;;19.54;43.24;100769.47;3080233;46;20443;-69
2023/10/14 10:58:13;;;;;;;4.67;2.23;;;17.50;64.60;;;19.74;42.61;100783.28;3079106;46;21026;-69
2023/10/14 11:00:47;;;;;;;4.60;2.10;;;17.60;63.50;;;19.96;41.54;100787.00;3078927;46;20485;-68
2023/10/14 11:03:17;;;;;;;7.23;2.57;;;17.70;62.00;;;20.15;41.03;100775.09;3079775;46;20455;-69
2023/10/14 11:05:47;;;;;;;4.63;1.90;;;17.80;62.00;;;20.31;41.90;100780.75;3080528;46;21057;-68
2023/10/14 11:08:22;;;;;;;7.37;2.67;;;17.90;63.00;;;20.39;41.43;100799.94;3080321;46;21146;-69
2023/10/14 11:10:51;;;;;;;6.90;2.87;;;18.00;62.00;;;20.35;40.73;100801.44;3081447;46;20479;-70
2023/10/14 11:13:20;;;;;;;6.67;2.60;;;18.10;60.70;;;20.25;41.03;100809.28;3082550;46;21083;-67